sensor_id;sensor_type;location;lat;lon;timestamp;temperature;humidity
75153;HTU21D;63734;45.218;36.708;2023-03-15T00:00:48;6.84;87.18
75153;HTU21D;63734;45.218;36.708;2023-03-15T00:03:14;6.84;87.23
75153;HTU21D;63734;45.218;36.708;2023-03-15T00:05:45;6.87;87.28
75153;HTU21D;63734;45.218;36.708;2023-03-15T00:08:12;6.97;87.17
75153;HTU21D;63734;45.218;36.708;2023-03-15T00:10:43;6.97;87.20
75153;HTU21D;63734;45.218;36.708;2023-03-15T00:13:10;7.00;87.16
75153;HTU21D;63734;45.218;36.708;2023-03-15T00:15:45;6.99;87.17
75153;HTU21D;63734;45.218;36.708;2023-03-15T00:18:11;7.01;87.16
75153;HTU21D;63734;45.218;36.708;2023-03-15T00:20:37;7.05;87.23
75153;HTU21D;63734;45.218;36.708;2023-03-15T00:23:03;7.10;87.10
75153;HTU21D;63734;45.218;36.708;2023-03-15T00:25:28;7.03;87.15
75153;HTU21D;63734;45.218;36.708;2023-03-15T00:27:54;7.00;87.30
75153;HTU21D;63734;45.218;36.708;2023-03-15T00:30:20;7.00;87.43
75153;HTU21D;63734;45.218;36.708;2023-03-15T00:32:46;7.01;87.44
75153;HTU21D;63734;45.218;36.708;2023-03-15T00:35:13;7.07;87.48
75153;HTU21D;63734;45.218;36.708;2023-03-15T00:37:39;7.10;87.41
75153;HTU21D;63734;45.218;36.708;2023-03-15T00:40:06;7.12;87.62
75153;HTU21D;63734;45.218;36.708;2023-03-15T00:42:32;7.18;87.46
75153;HTU21D;63734;45.218;36.708;2023-03-15T00:44:59;7.18;87.41
75153;HTU21D;63734;45.218;36.708;2023-03-15T00:47:25;7.18;87.46
75153;HTU21D;63734;45.218;36.708;2023-03-15T00:49:52;7.19;87.57
75153;HTU21D;63734;45.218;36.708;2023-03-15T00:52:18;7.19;87.50
75153;HTU21D;63734;45.218;36.708;2023-03-15T00:54:50;7.17;87.54
75153;HTU21D;63734;45.218;36.708;2023-03-15T00:57:16;7.18;87.54
75153;HTU21D;63734;45.218;36.708;2023-03-15T00:59:43;7.18;87.57
75153;HTU21D;63734;45.218;36.708;2023-03-15T01:02:10;7.22;87.48
75153;HTU21D;63734;45.218;36.708;2023-03-15T01:04:36;7.17;87.44
75153;HTU21D;63734;45.218;36.708;2023-03-15T01:07:03;7.11;87.57
75153;HTU21D;63734;45.218;36.708;2023-03-15T01:09:30;7.05;87.70
75153;HTU21D;63734;45.218;36.708;2023-03-15T01:11:57;7.07;87.74
75153;HTU21D;63734;45.218;36.708;2023-03-15T01:14:23;7.09;87.67
75153;HTU21D;63734;45.218;36.708;2023-03-15T01:16:50;7.08;87.69
75153;HTU21D;63734;45.218;36.708;2023-03-15T01:19:16;7.10;87.71
75153;HTU21D;63734;45.218;36.708;2023-03-15T01:21:44;7.12;87.70
75153;HTU21D;63734;45.218;36.708;2023-03-15T01:24:13;7.19;87.69
75153;HTU21D;63734;45.218;36.708;2023-03-15T01:26:40;7.20;87.62
75153;HTU21D;63734;45.218;36.708;2023-03-15T01:29:06;7.23;87.61
75153;HTU21D;63734;45.218;36.708;2023-03-15T01:31:32;7.27;87.57
75153;HTU21D;63734;45.218;36.708;2023-03-15T01:33:59;7.31;87.60
75153;HTU21D;63734;45.218;36.708;2023-03-15T01:36:29;7.28;87.44
75153;HTU21D;63734;45.218;36.708;2023-03-15T01:38:56;7.23;87.56
75153;HTU21D;63734;45.218;36.708;2023-03-15T01:41:37;7.25;87.63
75153;HTU21D;63734;45.218;36.708;2023-03-15T01:44:03;7.27;87.58
75153;HTU21D;63734;45.218;36.708;2023-03-15T01:46:31;7.28;87.54
75153;HTU21D;63734;45.218;36.708;2023-03-15T01:49:22;7.34;87.49
75153;HTU21D;63734;45.218;36.708;2023-03-15T01:52:16;7.32;87.54
75153;HTU21D;63734;45.218;36.708;2023-03-15T01:55:06;7.30;87.62
75153;HTU21D;63734;45.218;36.708;2023-03-15T01:57:37;7.26;87.75
75153;HTU21D;63734;45.218;36.708;2023-03-15T02:00:15;7.23;88.03
75153;HTU21D;63734;45.218;36.708;2023-03-15T02:03:04;7.17;88.06
75153;HTU21D;63734;45.218;36.708;2023-03-15T02:05:36;7.14;88.35
75153;HTU21D;63734;45.218;36.708;2023-03-15T02:08:07;7.12;88.32
75153;HTU21D;63734;45.218;36.708;2023-03-15T02:10:43;7.10;88.37
75153;HTU21D;63734;45.218;36.708;2023-03-15T02:13:13;7.13;88.41
75153;HTU21D;63734;45.218;36.708;2023-03-15T02:15:40;7.14;88.42
75153;HTU21D;63734;45.218;36.708;2023-03-15T02:18:15;7.13;88.47
75153;HTU21D;63734;45.218;36.708;2023-03-15T02:23:32;7.04;88.64
75153;HTU21D;63734;45.218;36.708;2023-03-15T02:28:40;6.93;88.94
75153;HTU21D;63734;45.218;36.708;2023-03-15T02:31:07;6.88;89.18
75153;HTU21D;63734;45.218;36.708;2023-03-15T02:33:43;6.87;89.27
75153;HTU21D;63734;45.218;36.708;2023-03-15T02:36:20;6.81;89.49
75153;HTU21D;63734;45.218;36.708;2023-03-15T02:38:47;6.76;89.78
75153;HTU21D;63734;45.218;36.708;2023-03-15T02:41:20;6.70;89.77
75153;HTU21D;63734;45.218;36.708;2023-03-15T02:43:48;6.65;90.19
75153;HTU21D;63734;45.218;36.708;2023-03-15T02:46:18;6.60;90.10
75153;HTU21D;63734;45.218;36.708;2023-03-15T02:48:45;6.58;90.21
75153;HTU21D;63734;45.218;36.708;2023-03-15T02:51:19;6.54;90.37
75153;HTU21D;63734;45.218;36.708;2023-03-15T02:53:45;6.55;90.25
75153;HTU21D;63734;45.218;36.708;2023-03-15T02:56:12;6.55;90.20
75153;HTU21D;63734;45.218;36.708;2023-03-15T02:58:40;6.56;90.10
75153;HTU21D;63734;45.218;36.708;2023-03-15T03:01:06;6.57;90.07
75153;HTU21D;63734;45.218;36.708;2023-03-15T03:03:33;6.56;90.14
75153;HTU21D;63734;45.218;36.708;2023-03-15T03:05:59;6.57;90.21
75153;HTU21D;63734;45.218;36.708;2023-03-15T03:08:26;6.63;90.10
75153;HTU21D;63734;45.218;36.708;2023-03-15T03:10:52;6.67;89.97
75153;HTU21D;63734;45.218;36.708;2023-03-15T03:13:18;6.66;89.95
75153;HTU21D;63734;45.218;36.708;2023-03-15T03:15:44;6.65;90.08
75153;HTU21D;63734;45.218;36.708;2023-03-15T03:18:12;6.60;90.42
75153;HTU21D;63734;45.218;36.708;2023-03-15T03:20:38;6.55;90.59
75153;HTU21D;63734;45.218;36.708;2023-03-15T03:23:05;6.52;90.54
75153;HTU21D;63734;45.218;36.708;2023-03-15T03:25:32;6.51;90.72
75153;HTU21D;63734;45.218;36.708;2023-03-15T03:27:58;6.45;91.36
75153;HTU21D;63734;45.218;36.708;2023-03-15T03:30:27;6.42;91.51
75153;HTU21D;63734;45.218;36.708;2023-03-15T03:32:53;6.38;91.45
75153;HTU21D;63734;45.218;36.708;2023-03-15T03:35:19;6.42;91.33
75153;HTU21D;63734;45.218;36.708;2023-03-15T03:37:45;6.53;90.98
75153;HTU21D;63734;45.218;36.708;2023-03-15T03:40:17;6.56;90.80
75153;HTU21D;63734;45.218;36.708;2023-03-15T03:42:43;6.57;90.70
75153;HTU21D;63734;45.218;36.708;2023-03-15T03:45:10;6.58;90.67
75153;HTU21D;63734;45.218;36.708;2023-03-15T03:47:41;6.53;90.66
75153;HTU21D;63734;45.218;36.708;2023-03-15T03:50:09;6.46;90.97
75153;HTU21D;63734;45.218;36.708;2023-03-15T03:52:35;6.40;91.08
75153;HTU21D;63734;45.218;36.708;2023-03-15T03:55:06;6.31;91.69
75153;HTU21D;63734;45.218;36.708;2023-03-15T03:57:32;6.23;92.17
75153;HTU21D;63734;45.218;36.708;2023-03-15T03:59:58;6.19;92.13
75153;HTU21D;63734;45.218;36.708;2023-03-15T04:02:25;6.14;92.11
75153;HTU21D;63734;45.218;36.708;2023-03-15T04:04:58;6.13;92.30
75153;HTU21D;63734;45.218;36.708;2023-03-15T04:07:24;6.10;92.36
75153;HTU21D;63734;45.218;36.708;2023-03-15T04:09:52;6.10;92.14
75153;HTU21D;63734;45.218;36.708;2023-03-15T04:12:18;6.09;92.37
75153;HTU21D;63734;45.218;36.708;2023-03-15T04:14:45;6.09;92.14
75153;HTU21D;63734;45.218;36.708;2023-03-15T04:17:13;6.09;92.14
75153;HTU21D;63734;45.218;36.708;2023-03-15T04:19:40;6.09;92.18
75153;HTU21D;63734;45.218;36.708;2023-03-15T04:22:08;6.09;92.07
75153;HTU21D;63734;45.218;36.708;2023-03-15T04:25:00;6.06;92.03
75153;HTU21D;63734;45.218;36.708;2023-03-15T04:28:02;6.06;92.34
75153;HTU21D;63734;45.218;36.708;2023-03-15T04:30:42;6.07;92.53
75153;HTU21D;63734;45.218;36.708;2023-03-15T04:33:31;6.09;92.62
75153;HTU21D;63734;45.218;36.708;2023-03-15T04:36:33;6.07;93.04
75153;HTU21D;63734;45.218;36.708;2023-03-15T04:39:29;6.07;93.34
75153;HTU21D;63734;45.218;36.708;2023-03-15T04:42:28;6.06;93.27
75153;HTU21D;63734;45.218;36.708;2023-03-15T04:45:24;6.08;93.17
75153;HTU21D;63734;45.218;36.708;2023-03-15T04:48:18;6.07;93.19
75153;HTU21D;63734;45.218;36.708;2023-03-15T04:51:10;6.07;93.18
75153;HTU21D;63734;45.218;36.708;2023-03-15T04:54:02;6.09;93.21
75153;HTU21D;63734;45.218;36.708;2023-03-15T04:56:54;6.12;93.39
75153;HTU21D;63734;45.218;36.708;2023-03-15T04:59:42;6.17;93.42
75153;HTU21D;63734;45.218;36.708;2023-03-15T05:02:31;6.30;93.13
75153;HTU21D;63734;45.218;36.708;2023-03-15T05:05:10;6.43;93.18
75153;HTU21D;63734;45.218;36.708;2023-03-15T05:07:55;6.57;92.95
75153;HTU21D;63734;45.218;36.708;2023-03-15T05:10:33;6.73;92.50
75153;HTU21D;63734;45.218;36.708;2023-03-15T05:13:18;6.82;92.11
75153;HTU21D;63734;45.218;36.708;2023-03-15T05:15:57;6.81;91.72
75153;HTU21D;63734;45.218;36.708;2023-03-15T05:18:56;6.78;91.74
75153;HTU21D;63734;45.218;36.708;2023-03-15T05:21:38;6.79;91.82
75153;HTU21D;63734;45.218;36.708;2023-03-15T05:24:25;6.82;91.69
75153;HTU21D;63734;45.218;36.708;2023-03-15T05:26:59;6.82;91.67
75153;HTU21D;63734;45.218;36.708;2023-03-15T05:29:44;6.81;91.64
75153;HTU21D;63734;45.218;36.708;2023-03-15T05:32:16;6.78;91.53
75153;HTU21D;63734;45.218;36.708;2023-03-15T05:35:08;6.73;91.57
75153;HTU21D;63734;45.218;36.708;2023-03-15T05:37:59;6.76;91.58
75153;HTU21D;63734;45.218;36.708;2023-03-15T05:40:45;6.73;91.71
75153;HTU21D;63734;45.218;36.708;2023-03-15T05:43:32;6.70;91.60
75153;HTU21D;63734;45.218;36.708;2023-03-15T05:46:27;6.63;91.51
75153;HTU21D;63734;45.218;36.708;2023-03-15T05:49:19;6.60;91.69
75153;HTU21D;63734;45.218;36.708;2023-03-15T05:52:20;6.63;91.82
75153;HTU21D;63734;45.218;36.708;2023-03-15T05:55:05;6.65;91.88
75153;HTU21D;63734;45.218;36.708;2023-03-15T05:57:54;6.69;91.90
75153;HTU21D;63734;45.218;36.708;2023-03-15T06:00:36;6.73;91.72
75153;HTU21D;63734;45.218;36.708;2023-03-15T06:03:12;6.78;91.53
75153;HTU21D;63734;45.218;36.708;2023-03-15T06:05:49;6.82;91.47
75153;HTU21D;63734;45.218;36.708;2023-03-15T06:08:24;6.87;91.28
75153;HTU21D;63734;45.218;36.708;2023-03-15T06:10:50;6.94;91.15
75153;HTU21D;63734;45.218;36.708;2023-03-15T06:13:19;6.98;91.02
75153;HTU21D;63734;45.218;36.708;2023-03-15T06:15:46;7.05;90.92
75153;HTU21D;63734;45.218;36.708;2023-03-15T06:18:13;7.09;90.89
75153;HTU21D;63734;45.218;36.708;2023-03-15T06:20:43;7.09;90.88
75153;HTU21D;63734;45.218;36.708;2023-03-15T06:23:12;7.11;90.87
75153;HTU21D;63734;45.218;36.708;2023-03-15T06:25:43;7.15;90.84
75153;HTU21D;63734;45.218;36.708;2023-03-15T06:28:10;7.10;90.76
75153;HTU21D;63734;45.218;36.708;2023-03-15T06:30:40;7.08;90.86
75153;HTU21D;63734;45.218;36.708;2023-03-15T06:33:06;7.09;90.93
75153;HTU21D;63734;45.218;36.708;2023-03-15T06:35:32;7.10;90.84
75153;HTU21D;63734;45.218;36.708;2023-03-15T06:37:59;7.11;90.92
75153;HTU21D;63734;45.218;36.708;2023-03-15T06:40:25;7.09;90.93
75153;HTU21D;63734;45.218;36.708;2023-03-15T06:42:51;7.13;91.04
75153;HTU21D;63734;45.218;36.708;2023-03-15T06:45:20;7.17;91.01
75153;HTU21D;63734;45.218;36.708;2023-03-15T06:47:47;7.17;90.90
75153;HTU21D;63734;45.218;36.708;2023-03-15T06:50:15;7.15;90.85
75153;HTU21D;63734;45.218;36.708;2023-03-15T06:52:41;7.12;90.82
75153;HTU21D;63734;45.218;36.708;2023-03-15T06:55:08;7.09;90.78
75153;HTU21D;63734;45.218;36.708;2023-03-15T06:57:38;7.08;90.86
75153;HTU21D;63734;45.218;36.708;2023-03-15T07:00:05;7.08;90.80
75153;HTU21D;63734;45.218;36.708;2023-03-15T07:02:36;7.08;90.86
75153;HTU21D;63734;45.218;36.708;2023-03-15T07:05:05;7.10;90.75
75153;HTU21D;63734;45.218;36.708;2023-03-15T07:07:32;7.10;90.83
75153;HTU21D;63734;45.218;36.708;2023-03-15T07:09:58;7.10;90.84
75153;HTU21D;63734;45.218;36.708;2023-03-15T07:12:24;7.12;90.97
75153;HTU21D;63734;45.218;36.708;2023-03-15T07:14:50;7.12;90.92
75153;HTU21D;63734;45.218;36.708;2023-03-15T07:17:16;7.16;90.93
75153;HTU21D;63734;45.218;36.708;2023-03-15T07:19:42;7.17;90.95
75153;HTU21D;63734;45.218;36.708;2023-03-15T07:22:08;7.12;90.99
75153;HTU21D;63734;45.218;36.708;2023-03-15T07:24:34;7.11;91.09
75153;HTU21D;63734;45.218;36.708;2023-03-15T07:27:00;7.11;91.20
75153;HTU21D;63734;45.218;36.708;2023-03-15T07:29:26;7.10;91.31
75153;HTU21D;63734;45.218;36.708;2023-03-15T07:31:53;7.07;91.22
75153;HTU21D;63734;45.218;36.708;2023-03-15T07:34:18;7.05;91.21
75153;HTU21D;63734;45.218;36.708;2023-03-15T07:36:44;7.04;91.34
75153;HTU21D;63734;45.218;36.708;2023-03-15T07:39:11;7.04;91.44
75153;HTU21D;63734;45.218;36.708;2023-03-15T07:41:37;7.00;91.40
75153;HTU21D;63734;45.218;36.708;2023-03-15T07:44:12;6.99;91.61
75153;HTU21D;63734;45.218;36.708;2023-03-15T07:46:37;6.96;91.62
75153;HTU21D;63734;45.218;36.708;2023-03-15T07:49:04;6.93;91.69
75153;HTU21D;63734;45.218;36.708;2023-03-15T07:51:37;6.90;91.72
75153;HTU21D;63734;45.218;36.708;2023-03-15T07:54:08;6.91;91.71
75153;HTU21D;63734;45.218;36.708;2023-03-15T07:56:34;6.90;91.75
75153;HTU21D;63734;45.218;36.708;2023-03-15T07:59:00;6.94;91.70
75153;HTU21D;63734;45.218;36.708;2023-03-15T08:01:26;6.96;91.66
75153;HTU21D;63734;45.218;36.708;2023-03-15T08:03:58;6.97;91.60
75153;HTU21D;63734;45.218;36.708;2023-03-15T08:06:24;7.00;91.61
75153;HTU21D;63734;45.218;36.708;2023-03-15T08:08:51;7.07;91.57
75153;HTU21D;63734;45.218;36.708;2023-03-15T08:11:17;7.11;91.54
75153;HTU21D;63734;45.218;36.708;2023-03-15T08:13:43;7.16;91.52
75153;HTU21D;63734;45.218;36.708;2023-03-15T08:16:09;7.20;91.51
75153;HTU21D;63734;45.218;36.708;2023-03-15T08:18:35;7.25;91.37
75153;HTU21D;63734;45.218;36.708;2023-03-15T08:21:01;7.26;91.31
75153;HTU21D;63734;45.218;36.708;2023-03-15T08:23:27;7.31;91.18
75153;HTU21D;63734;45.218;36.708;2023-03-15T08:25:53;7.38;91.08
75153;HTU21D;63734;45.218;36.708;2023-03-15T08:28:19;7.41;91.02
75153;HTU21D;63734;45.218;36.708;2023-03-15T08:30:45;7.44;90.92
75153;HTU21D;63734;45.218;36.708;2023-03-15T08:33:11;7.48;90.87
75153;HTU21D;63734;45.218;36.708;2023-03-15T08:35:37;7.52;90.79
75153;HTU21D;63734;45.218;36.708;2023-03-15T08:38:03;7.57;90.75
75153;HTU21D;63734;45.218;36.708;2023-03-15T08:40:29;7.60;90.69
75153;HTU21D;63734;45.218;36.708;2023-03-15T08:42:56;7.61;90.69
75153;HTU21D;63734;45.218;36.708;2023-03-15T08:45:23;7.60;90.72
75153;HTU21D;63734;45.218;36.708;2023-03-15T08:47:59;7.68;90.62
75153;HTU21D;63734;45.218;36.708;2023-03-15T08:50:27;7.76;90.41
75153;HTU21D;63734;45.218;36.708;2023-03-15T08:52:53;7.76;90.33
75153;HTU21D;63734;45.218;36.708;2023-03-15T08:55:20;7.78;90.23
75153;HTU21D;63734;45.218;36.708;2023-03-15T08:57:46;7.81;90.09
75153;HTU21D;63734;45.218;36.708;2023-03-15T09:00:14;7.77;89.98
75153;HTU21D;63734;45.218;36.708;2023-03-15T09:02:49;7.72;90.11
75153;HTU21D;63734;45.218;36.708;2023-03-15T09:05:17;7.69;90.11
75153;HTU21D;63734;45.218;36.708;2023-03-15T09:07:44;7.65;90.12
75153;HTU21D;63734;45.218;36.708;2023-03-15T09:10:12;7.63;90.13
75153;HTU21D;63734;45.218;36.708;2023-03-15T09:12:45;7.59;90.02
75153;HTU21D;63734;45.218;36.708;2023-03-15T09:15:11;7.49;89.82
75153;HTU21D;63734;45.218;36.708;2023-03-15T09:17:38;7.44;89.95
75153;HTU21D;63734;45.218;36.708;2023-03-15T09:20:06;7.39;90.00
75153;HTU21D;63734;45.218;36.708;2023-03-15T09:22:54;7.34;89.97
75153;HTU21D;63734;45.218;36.708;2023-03-15T09:25:22;7.31;90.01
75153;HTU21D;63734;45.218;36.708;2023-03-15T09:27:48;7.33;90.02
75153;HTU21D;63734;45.218;36.708;2023-03-15T09:30:15;7.37;90.01
75153;HTU21D;63734;45.218;36.708;2023-03-15T09:32:41;7.41;89.99
75153;HTU21D;63734;45.218;36.708;2023-03-15T09:35:15;7.44;89.88
75153;HTU21D;63734;45.218;36.708;2023-03-15T09:37:41;7.44;89.82
75153;HTU21D;63734;45.218;36.708;2023-03-15T09:43:02;7.48;89.38
75153;HTU21D;63734;45.218;36.708;2023-03-15T09:48:09;7.53;89.37
75153;HTU21D;63734;45.218;36.708;2023-03-15T09:53:42;7.60;89.27
75153;HTU21D;63734;45.218;36.708;2023-03-15T09:56:35;7.60;89.10
75153;HTU21D;63734;45.218;36.708;2023-03-15T09:59:03;7.60;89.23
75153;HTU21D;63734;45.218;36.708;2023-03-15T10:01:35;7.61;89.19
75153;HTU21D;63734;45.218;36.708;2023-03-15T10:04:12;7.56;88.92
75153;HTU21D;63734;45.218;36.708;2023-03-15T10:06:41;7.52;88.85
75153;HTU21D;63734;45.218;36.708;2023-03-15T10:09:15;7.53;89.00
75153;HTU21D;63734;45.218;36.708;2023-03-15T10:12:37;7.55;89.27
75153;HTU21D;63734;45.218;36.708;2023-03-15T10:20:20;7.53;89.83
75153;HTU21D;63734;45.218;36.708;2023-03-15T10:23:04;7.54;89.85
75153;HTU21D;63734;45.218;36.708;2023-03-15T10:25:36;7.50;90.26
75153;HTU21D;63734;45.218;36.708;2023-03-15T10:30:51;7.44;90.15
75153;HTU21D;63734;45.218;36.708;2023-03-15T10:33:28;7.45;90.27
75153;HTU21D;63734;45.218;36.708;2023-03-15T10:35:58;7.46;90.20
75153;HTU21D;63734;45.218;36.708;2023-03-15T10:38:25;7.48;90.18
75153;HTU21D;63734;45.218;36.708;2023-03-15T10:40:54;7.47;90.21
75153;HTU21D;63734;45.218;36.708;2023-03-15T10:46:10;7.44;90.32
75153;HTU21D;63734;45.218;36.708;2023-03-15T10:48:37;7.44;90.56
75153;HTU21D;63734;45.218;36.708;2023-03-15T10:51:21;7.45;90.59
75153;HTU21D;63734;45.218;36.708;2023-03-15T10:53:57;7.46;90.57
75153;HTU21D;63734;45.218;36.708;2023-03-15T10:56:35;7.47;90.50
75153;HTU21D;63734;45.218;36.708;2023-03-15T10:59:02;7.50;90.57
75153;HTU21D;63734;45.218;36.708;2023-03-15T11:01:39;7.47;90.82
75153;HTU21D;63734;45.218;36.708;2023-03-15T11:04:15;7.47;90.82
75153;HTU21D;63734;45.218;36.708;2023-03-15T11:07:00;7.47;90.76
75153;HTU21D;63734;45.218;36.708;2023-03-15T11:09:41;7.49;90.98
75153;HTU21D;63734;45.218;36.708;2023-03-15T11:14:52;7.53;91.47
75153;HTU21D;63734;45.218;36.708;2023-03-15T11:17:26;7.54;91.56
75153;HTU21D;63734;45.218;36.708;2023-03-15T11:22:18;7.60;91.46
75153;HTU21D;63734;45.218;36.708;2023-03-15T11:24:44;7.62;91.29
75153;HTU21D;63734;45.218;36.708;2023-03-15T11:27:14;7.65;91.14
75153;HTU21D;63734;45.218;36.708;2023-03-15T11:29:46;7.69;91.13
75153;HTU21D;63734;45.218;36.708;2023-03-15T11:32:17;7.70;91.01
75153;HTU21D;63734;45.218;36.708;2023-03-15T11:35:04;7.72;90.93
75153;HTU21D;63734;45.218;36.708;2023-03-15T11:37:44;7.73;90.89
75153;HTU21D;63734;45.218;36.708;2023-03-15T11:40:17;7.81;90.76
75153;HTU21D;63734;45.218;36.708;2023-03-15T11:45:46;7.87;90.47
75153;HTU21D;63734;45.218;36.708;2023-03-15T11:51:48;7.86;90.37
75153;HTU21D;63734;45.218;36.708;2023-03-15T11:54:16;7.83;90.41
75153;HTU21D;63734;45.218;36.708;2023-03-15T12:01:49;7.90;90.34
75153;HTU21D;63734;45.218;36.708;2023-03-15T12:04:26;8.00;90.28
75153;HTU21D;63734;45.218;36.708;2023-03-15T12:06:54;8.08;90.08
75153;HTU21D;63734;45.218;36.708;2023-03-15T12:15:04;8.17;90.00
75153;HTU21D;63734;45.218;36.708;2023-03-15T12:17:38;8.24;89.94
75153;HTU21D;63734;45.218;36.708;2023-03-15T12:22:44;8.30;89.92
75153;HTU21D;63734;45.218;36.708;2023-03-15T12:25:28;8.28;89.96
75153;HTU21D;63734;45.218;36.708;2023-03-15T12:27:57;8.32;90.04
75153;HTU21D;63734;45.218;36.708;2023-03-15T12:33:27;8.41;89.95
75153;HTU21D;63734;45.218;36.708;2023-03-15T12:36:01;8.47;89.95
75153;HTU21D;63734;45.218;36.708;2023-03-15T12:38:35;8.53;89.93
75153;HTU21D;63734;45.218;36.708;2023-03-15T12:41:09;8.60;89.91
75153;HTU21D;63734;45.218;36.708;2023-03-15T12:52:41;8.53;90.18
75153;HTU21D;63734;45.218;36.708;2023-03-15T12:58:05;8.44;90.44
75153;HTU21D;63734;45.218;36.708;2023-03-15T13:00:32;8.39;90.65
75153;HTU21D;63734;45.218;36.708;2023-03-15T13:03:14;8.37;90.70
75153;HTU21D;63734;45.218;36.708;2023-03-15T13:08:26;8.33;90.81
75153;HTU21D;63734;45.218;36.708;2023-03-15T13:11:09;8.33;91.00
75153;HTU21D;63734;45.218;36.708;2023-03-15T13:13:54;8.32;91.15
75153;HTU21D;63734;45.218;36.708;2023-03-15T13:16:32;8.30;91.19
75153;HTU21D;63734;45.218;36.708;2023-03-15T13:19:21;8.31;91.19
75153;HTU21D;63734;45.218;36.708;2023-03-15T13:27:55;8.30;91.08
75153;HTU21D;63734;45.218;36.708;2023-03-15T13:30:36;8.32;91.07
75153;HTU21D;63734;45.218;36.708;2023-03-15T13:33:04;8.32;91.01
75153;HTU21D;63734;45.218;36.708;2023-03-15T13:35:32;8.38;90.96
75153;HTU21D;63734;45.218;36.708;2023-03-15T13:38:30;8.44;90.82
75153;HTU21D;63734;45.218;36.708;2023-03-15T13:40:59;8.52;90.68
75153;HTU21D;63734;45.218;36.708;2023-03-15T13:43:37;8.57;90.55
75153;HTU21D;63734;45.218;36.708;2023-03-15T13:46:04;8.61;90.43
75153;HTU21D;63734;45.218;36.708;2023-03-15T13:48:36;8.65;90.32
75153;HTU21D;63734;45.218;36.708;2023-03-15T13:53:52;8.74;90.19
75153;HTU21D;63734;45.218;36.708;2023-03-15T13:56:34;8.76;90.13
75153;HTU21D;63734;45.218;36.708;2023-03-15T13:59:01;8.78;90.05
75153;HTU21D;63734;45.218;36.708;2023-03-15T14:01:29;8.76;90.00
75153;HTU21D;63734;45.218;36.708;2023-03-15T14:04:09;8.72;90.07
75153;HTU21D;63734;45.218;36.708;2023-03-15T14:06:37;8.70;90.07
75153;HTU21D;63734;45.218;36.708;2023-03-15T14:09:10;8.66;90.02
75153;HTU21D;63734;45.218;36.708;2023-03-15T14:11:38;8.62;90.05
75153;HTU21D;63734;45.218;36.708;2023-03-15T14:14:37;8.59;90.09
75153;HTU21D;63734;45.218;36.708;2023-03-15T14:17:23;8.56;89.95
75153;HTU21D;63734;45.218;36.708;2023-03-15T14:19:54;8.57;89.80
75153;HTU21D;63734;45.218;36.708;2023-03-15T14:22:21;8.57;89.70
75153;HTU21D;63734;45.218;36.708;2023-03-15T14:24:49;8.59;89.62
75153;HTU21D;63734;45.218;36.708;2023-03-15T14:27:19;8.61;89.47
75153;HTU21D;63734;45.218;36.708;2023-03-15T14:29:52;8.62;89.41
75153;HTU21D;63734;45.218;36.708;2023-03-15T14:34:49;8.65;89.40
75153;HTU21D;63734;45.218;36.708;2023-03-15T14:37:35;8.76;89.34
75153;HTU21D;63734;45.218;36.708;2023-03-15T14:40:28;8.82;89.14
75153;HTU21D;63734;45.218;36.708;2023-03-15T14:42:54;8.79;89.04
75153;HTU21D;63734;45.218;36.708;2023-03-15T14:45:21;8.71;89.08
75153;HTU21D;63734;45.218;36.708;2023-03-15T14:47:50;8.64;89.24
75153;HTU21D;63734;45.218;36.708;2023-03-15T14:50:19;8.62;89.43
75153;HTU21D;63734;45.218;36.708;2023-03-15T14:52:47;8.65;89.57
75153;HTU21D;63734;45.218;36.708;2023-03-15T14:55:20;8.62;89.64
75153;HTU21D;63734;45.218;36.708;2023-03-15T14:57:47;8.57;89.66
75153;HTU21D;63734;45.218;36.708;2023-03-15T15:00:16;8.51;89.67
75153;HTU21D;63734;45.218;36.708;2023-03-15T15:02:49;8.48;89.70
75153;HTU21D;63734;45.218;36.708;2023-03-15T15:05:24;8.45;89.76
75153;HTU21D;63734;45.218;36.708;2023-03-15T15:07:52;8.41;89.77
75153;HTU21D;63734;45.218;36.708;2023-03-15T15:10:22;8.37;89.79
75153;HTU21D;63734;45.218;36.708;2023-03-15T15:12:48;8.34;89.82
75153;HTU21D;63734;45.218;36.708;2023-03-15T15:15:19;8.31;89.86
75153;HTU21D;63734;45.218;36.708;2023-03-15T15:17:47;8.29;89.86
75153;HTU21D;63734;45.218;36.708;2023-03-15T15:20:14;8.27;89.92
75153;HTU21D;63734;45.218;36.708;2023-03-15T15:22:41;8.24;89.97
75153;HTU21D;63734;45.218;36.708;2023-03-15T15:25:19;8.23;90.04
75153;HTU21D;63734;45.218;36.708;2023-03-15T15:27:47;8.18;90.11
75153;HTU21D;63734;45.218;36.708;2023-03-15T15:30:18;8.18;90.15
75153;HTU21D;63734;45.218;36.708;2023-03-15T15:32:44;8.15;90.20
75153;HTU21D;63734;45.218;36.708;2023-03-15T15:35:12;8.13;90.23
75153;HTU21D;63734;45.218;36.708;2023-03-15T15:37:41;8.11;90.32
75153;HTU21D;63734;45.218;36.708;2023-03-15T15:40:14;8.07;90.35
75153;HTU21D;63734;45.218;36.708;2023-03-15T15:42:40;8.05;90.41
75153;HTU21D;63734;45.218;36.708;2023-03-15T15:45:12;8.02;90.46
75153;HTU21D;63734;45.218;36.708;2023-03-15T15:47:39;8.03;90.49
75153;HTU21D;63734;45.218;36.708;2023-03-15T15:50:06;8.01;90.59
75153;HTU21D;63734;45.218;36.708;2023-03-15T15:52:35;7.98;90.74
75153;HTU21D;63734;45.218;36.708;2023-03-15T15:55:02;7.93;90.86
75153;HTU21D;63734;45.218;36.708;2023-03-15T15:57:30;7.92;90.96
75153;HTU21D;63734;45.218;36.708;2023-03-15T15:59:56;7.89;91.09
75153;HTU21D;63734;45.218;36.708;2023-03-15T16:02:22;7.89;91.16
75153;HTU21D;63734;45.218;36.708;2023-03-15T16:04:48;7.89;91.22
75153;HTU21D;63734;45.218;36.708;2023-03-15T16:07:16;7.89;91.19
75153;HTU21D;63734;45.218;36.708;2023-03-15T16:09:44;7.90;91.20
75153;HTU21D;63734;45.218;36.708;2023-03-15T16:12:15;7.91;91.26
75153;HTU21D;63734;45.218;36.708;2023-03-15T16:14:43;7.89;91.27
75153;HTU21D;63734;45.218;36.708;2023-03-15T16:19:41;7.88;91.41
75153;HTU21D;63734;45.218;36.708;2023-03-15T16:22:08;7.84;91.48
75153;HTU21D;63734;45.218;36.708;2023-03-15T16:24:35;7.82;91.56
75153;HTU21D;63734;45.218;36.708;2023-03-15T16:27:05;7.76;91.66
75153;HTU21D;63734;45.218;36.708;2023-03-15T16:29:40;7.73;91.76
75153;HTU21D;63734;45.218;36.708;2023-03-15T16:32:15;7.70;91.81
75153;HTU21D;63734;45.218;36.708;2023-03-15T16:34:42;7.67;91.86
75153;HTU21D;63734;45.218;36.708;2023-03-15T16:37:13;7.65;91.91
75153;HTU21D;63734;45.218;36.708;2023-03-15T16:39:41;7.62;91.93
75153;HTU21D;63734;45.218;36.708;2023-03-15T16:42:17;7.59;91.96
75153;HTU21D;63734;45.218;36.708;2023-03-15T16:44:44;7.60;91.92
75153;HTU21D;63734;45.218;36.708;2023-03-15T16:47:11;7.60;91.88
75153;HTU21D;63734;45.218;36.708;2023-03-15T16:49:38;7.60;91.86
75153;HTU21D;63734;45.218;36.708;2023-03-15T16:52:05;7.60;91.82
75153;HTU21D;63734;45.218;36.708;2023-03-15T16:54:34;7.61;91.81
75153;HTU21D;63734;45.218;36.708;2023-03-15T16:57:00;7.60;91.79
75153;HTU21D;63734;45.218;36.708;2023-03-15T16:59:27;7.58;91.85
75153;HTU21D;63734;45.218;36.708;2023-03-15T17:01:54;7.56;91.85
75153;HTU21D;63734;45.218;36.708;2023-03-15T17:04:20;7.55;91.93